Time;durP1;ratioP1;P1;durP2;ratioP2;P2;SDS_P1;SDS_P2;PMS_P1;PMS_P2;Temp;Humidity;BMP_temperature;BMP_pressure;BME280_temperature;BME280_humidity;BME280_pressure;Samples;Min_cycle;Max_cycle;Signal;HPM_P1;HPM_P2
2022/04/22 00:00:06;;;;;;;27.95;13.85;;;;;;;8.11;70.12;99987.50;5084144;28;20056;-63
2022/04/22 00:02:33;;;;;;;28.83;15.35;;;;;;;8.16;70.07;99989.34;5075322;28;20090;-64
2022/04/22 00:05:01;;;;;;;28.60;15.18;;;;;;;8.18;69.74;99993.47;5075342;28;20507;-64
2022/04/22 00:07:29;;;;;;;31.38;15.30;;;;;;;8.20;69.84;99985.66;5075322;28;20051;-64
2022/04/22 00:09:56;;;;;;;32.70;16.48;;;;;;;8.24;69.57;99991.44;5075235;28;20090;-63
2022/04/22 00:12:23;;;;;;;26.92;14.20;;;;;;;8.27;69.76;99991.69;5075052;28;20099;-64
2022/04/22 00:14:50;;;;;;;31.42;15.05;;;;;;;8.30;69.51;99991.06;5074919;28;20063;-64
2022/04/22 00:17:17;;;;;;;28.08;14.35;;;;;;;8.27;69.61;99979.75;5092210;28;20143;-62
2022/04/22 00:19:44;;;;;;;26.77;14.23;;;;;;;8.31;69.61;99984.38;5095027;28;20044;-64
2022/04/22 00:22:11;;;;;;;28.67;14.43;;;;;;;8.32;69.36;99983.22;5095314;28;20060;-64
2022/04/22 00:24:38;;;;;;;27.70;13.98;;;;;;;8.37;69.46;99985.09;5094937;28;20079;-65
2022/04/22 00:27:05;;;;;;;24.52;12.98;;;;;;;8.38;69.43;99983.97;5093747;28;20506;-63
2022/04/22 00:29:32;;;;;;;24.77;12.45;;;;;;;8.40;69.04;99979.75;5095337;28;20086;-63
2022/04/22 00:31:59;;;;;;;27.92;14.30;;;;;;;8.40;69.06;99992.78;5095218;28;20406;-63
2022/04/22 00:34:26;;;;;;;26.65;14.05;;;;;;;8.41;69.26;99992.47;5095009;28;20138;-64
2022/04/22 00:36:54;;;;;;;25.90;14.45;;;;;;;8.34;69.54;99981.00;5095054;28;20506;-64
2022/04/22 00:39:21;;;;;;;27.67;13.88;;;;;;;8.26;69.22;99981.69;5094644;28;20134;-63
2022/04/22 00:41:48;;;;;;;23.90;13.95;;;;;;;8.25;69.81;99987.53;5080197;28;20140;-63
2022/04/22 00:44:15;;;;;;;25.90;13.93;;;;;;;8.28;69.67;99982.22;5074726;28;20055;-63
2022/04/22 00:46:41;;;;;;;25.65;13.85;;;;;;;8.26;69.35;99983.66;5074650;28;20052;-63
2022/04/22 00:49:08;;;;;;;28.90;14.90;;;;;;;8.24;69.65;99983.97;5074230;28;20515;-63
2022/04/22 00:51:36;;;;;;;38.67;15.30;;;;;;;8.23;69.61;99974.00;5081590;28;20054;-64
2022/04/22 00:54:04;;;;;;;24.45;14.02;;;;;;;8.23;69.50;99979.53;5094360;28;20142;-64
2022/04/22 00:56:31;;;;;;;35.40;14.90;;;;;;;8.20;69.42;99969.03;5094688;28;20106;-64
2022/04/22 00:58:59;;;;;;;24.02;13.50;;;;;;;8.16;69.46;99972.72;5094414;28;20414;-63
2022/04/22 01:01:26;;;;;;;23.55;12.52;;;;;;;8.14;69.73;99973.03;5094673;28;20048;-64
2022/04/22 01:12:11;;;;;;;23.95;12.23;;;;;;;8.08;69.61;99957.63;5093475;28;20050;-64
2022/04/22 01:14:41;;;;;;;25.63;13.88;;;;;;;8.10;69.80;99951.78;5094053;28;20052;-63
2022/04/22 01:17:08;;;;;;;21.35;12.32;;;;;;;8.12;69.64;99957.84;5094334;28;20044;-63
2022/04/22 01:19:36;;;;;;;23.95;13.13;;;;;;;8.12;69.82;99955.91;5094030;28;20590;-64
2022/04/22 01:22:03;;;;;;;26.05;13.77;;;;;;;8.15;69.56;99952.53;5094248;28;20050;-64
2022/04/22 01:24:30;;;;;;;22.73;12.40;;;;;;;8.10;69.56;99952.63;5094031;28;20143;-64
2022/04/22 01:26:58;;;;;;;25.08;12.82;;;;;;;8.06;70.03;99951.59;5093894;28;20055;-63
2022/04/22 01:29:25;;;;;;;23.65;12.80;;;;;;;8.10;69.98;99947.06;5093882;28;20075;-63
2022/04/22 01:31:52;;;;;;;25.83;13.32;;;;;;;8.20;69.57;99946.88;5074099;28;20517;-64
2022/04/22 01:34:19;;;;;;;25.95;11.60;;;;;;;8.22;69.58;99944.66;5073633;28;20113;-64
2022/04/22 01:36:46;;;;;;;21.45;11.02;;;;;;;8.22;69.55;99960.41;5073381;28;20058;-64
2022/04/22 01:39:13;;;;;;;27.05;11.45;;;;;;;8.21;69.64;99954.06;5080703;28;20132;-69
2022/04/22 01:41:41;;;;;;;23.95;11.98;;;;;;;8.25;69.71;99951.50;5093595;28;20533;-70
2022/04/22 01:44:08;;;;;;;21.63;12.48;;;;;;;8.21;69.95;99942.97;5093747;28;20047;-69
2022/04/22 01:46:36;;;;;;;23.40;12.32;;;;;;;8.21;69.38;99947.69;5094086;28;20080;-70
2022/04/22 01:49:03;;;;;;;22.83;12.82;;;;;;;8.22;69.57;99943.78;5093300;28;20082;-70
2022/04/22 01:51:30;;;;;;;23.60;13.23;;;;;;;8.21;69.59;99956.00;5087178;28;20075;-70
2022/04/22 01:53:57;;;;;;;25.83;12.13;;;;;;;8.19;69.44;99947.16;5071956;28;20055;-70
2022/04/22 01:56:23;;;;;;;24.83;12.98;;;;;;;8.17;69.41;99947.47;5071851;28;20063;-70
2022/04/22 01:58:50;;;;;;;19.33;10.85;;;;;;;8.17;70.03;99952.22;5073380;28;20114;-70
2022/04/22 02:01:17;;;;;;;22.02;12.45;;;;;;;8.09;70.21;99948.22;5073296;28;20424;-69
2022/04/22 02:03:44;;;;;;;22.52;12.38;;;;;;;8.08;70.05;99954.84;5073381;28;20052;-68
2022/04/22 02:06:11;;;;;;;22.10;12.18;;;;;;;8.10;70.00;99952.63;5073484;28;20048;-68
2022/04/22 02:08:38;;;;;;;24.05;13.45;;;;;;;8.13;70.07;99952.00;5072900;28;20052;-68
2022/04/22 02:11:05;;;;;;;27.00;13.52;;;;;;;8.18;69.82;99960.22;5072776;28;20056;-68
2022/04/22 02:13:36;;;;;;;24.80;13.32;;;;;;;8.26;69.36;99962.28;5076666;28;20040;-70
2022/04/22 02:16:08;;;;;;;26.67;14.85;;;;;;;8.30;69.34;99956.97;5093292;28;20537;-69
2022/04/22 02:18:39;;;;;;;31.15;15.10;;;;;;;8.30;69.66;99966.13;5092040;28;20117;-70
2022/04/22 02:21:07;;;;;;;29.30;15.68;;;;;;;8.34;69.49;99969.91;5073059;28;20044;-69
2022/04/22 02:23:35;;;;;;;32.30;16.10;;;;;;;8.37;69.27;99968.47;5072286;28;20059;-69
2022/04/22 02:26:04;;;;;;;32.42;15.77;;;;;;;8.41;69.42;99966.72;5072883;28;20071;-69
2022/04/22 02:28:34;;;;;;;36.58;17.08;;;;;;;8.42;69.60;99965.59;5075201;28;20059;-69
2022/04/22 02:31:08;;;;;;;35.88;17.60;;;;;;;8.42;69.42;99960.88;5092991;28;20039;-68
2022/04/22 02:33:38;;;;;;;34.17;16.52;;;;;;;8.38;69.84;99953.50;5092950;28;20391;-68
2022/04/22 02:36:09;;;;;;;33.85;16.90;;;;;;;8.39;69.28;99955.94;5092971;28;20097;-69
2022/04/22 02:38:37;;;;;;;27.95;15.65;;;;;;;8.42;69.63;99960.88;5092876;28;20533;-69
2022/04/22 02:46:36;;;;;;;28.70;16.55;;;;;;;8.31;69.64;99951.13;5093150;28;20052;-69
2022/04/22 02:49:03;;;;;;;27.98;14.65;;;;;;;8.32;69.80;99961.06;5092398;28;20553;-69
2022/04/22 02:51:31;;;;;;;33.15;16.17;;;;;;;8.31;69.95;99959.44;5086300;28;20051;-63
2022/04/22 02:53:58;;;;;;;30.58;16.05;;;;;;;8.29;69.93;99956.13;5072228;28;20534;-63
2022/04/22 02:56:26;;;;;;;34.78;17.42;;;;;;;8.29;69.88;99958.91;5072500;28;20094;-63
2022/04/22 02:58:54;;;;;;;31.63;17.20;;;;;;;8.35;69.77;99954.91;5072734;28;20074;-64
2022/04/22 03:01:21;;;;;;;36.28;16.42;;;;;;;8.37;69.90;99960.97;5072525;28;20056;-64
2022/04/22 03:03:49;;;;;;;34.40;16.25;;;;;;;8.37;69.75;99963.75;5072467;28;20056;-64
2022/04/22 03:06:16;;;;;;;33.38;16.65;;;;;;;8.36;69.79;99951.03;5072488;28;20067;-63
2022/04/22 03:08:44;;;;;;;35.08;16.95;;;;;;;8.42;69.75;99954.50;5072094;28;20135;-63
2022/04/22 03:11:11;;;;;;;37.08;16.65;;;;;;;8.42;69.76;99960.88;5072821;28;20120;-63
2022/04/22 03:13:39;;;;;;;31.17;16.17;;;;;;;8.46;69.74;99963.84;5072296;28;20048;-63
2022/04/22 03:16:06;;;;;;;35.17;15.75;;;;;;;8.48;69.95;99965.19;5072393;28;20054;-63
2022/04/22 03:18:34;;;;;;;26.38;15.00;;;;;;;8.44;69.81;99957.78;5072319;28;20472;-63
2022/04/22 03:21:01;;;;;;;26.85;15.77;;;;;;;8.44;69.64;99958.59;5074905;28;20422;-64
2022/04/22 03:23:28;;;;;;;30.02;15.32;;;;;;;8.50;69.82;99956.56;5092322;28;20056;-64
2022/04/22 03:25:55;;;;;;;29.90;15.73;;;;;;;8.48;69.55;99962.41;5092471;28;20056;-64
2022/04/22 03:28:23;;;;;;;28.00;15.23;;;;;;;8.46;69.71;99961.06;5092395;28;20052;-63
2022/04/22 03:30:50;;;;;;;29.38;14.82;;;;;;;8.39;69.61;99961.50;5092025;28;20100;-63
2022/04/22 03:33:19;;;;;;;29.38;15.48;;;;;;;8.37;70.10;99960.97;5092341;28;20056;-64
2022/04/22 03:35:50;;;;;;;28.92;15.93;;;;;;;8.43;69.71;99965.28;5093853;28;20050;-63
2022/04/22 03:38:21;;;;;;;30.10;15.38;;;;;;;8.52;69.80;99965.38;5096043;28;20097;-64
2022/04/22 03:40:49;;;;;;;30.67;16.30;;;;;;;8.51;69.57;99961.81;5080250;28;20131;-64
2022/04/22 03:43:16;;;;;;;29.70;15.35;;;;;;;8.52;69.66;99966.19;5074483;28;20051;-65
2022/04/22 03:45:43;;;;;;;30.35;15.20;;;;;;;8.45;69.76;99965.81;5074365;28;20053;-69
2022/04/22 03:48:13;;;;;;;34.88;15.00;;;;;;;8.46;69.61;99978.53;5075570;28;20056;-70
2022/04/22 03:50:41;;;;;;;28.55;15.88;;;;;;;8.45;69.54;99971.34;5075639;28;20047;-70
2022/04/22 03:53:11;;;;;;;36.08;15.07;;;;;;;8.41;69.57;99969.50;5095122;28;20045;-70
2022/04/22 03:55:40;;;;;;;34.03;15.77;;;;;;;8.32;69.71;99969.38;5094700;28;20064;-69
2022/04/22 03:58:11;;;;;;;40.80;16.17;;;;;;;8.33;69.78;99975.75;5095800;28;20498;-69
2022/04/22 04:00:40;;;;;;;36.88;14.98;;;;;;;8.33;70.12;99973.81;5095846;28;20455;-70
2022/04/22 04:03:09;;;;;;;30.58;13.98;;;;;;;8.33;69.99;99976.59;5095779;28;20040;-69
2022/04/22 04:05:37;;;;;;;25.60;12.55;;;;;;;8.23;70.23;99979.53;5095791;28;20047;-69
2022/04/22 04:08:05;;;;;;;31.33;14.32;;;;;;;8.22;70.47;99980.69;5095887;28;20051;-70
2022/04/22 04:16:04;;;;;;;32.00;14.80;;;;;;;8.31;69.92;99976.06;5095589;28;20075;-69
2022/04/22 04:18:33;;;;;;;23.63;12.55;;;;;;;8.33;70.19;99978.53;5095483;28;20047;-70
2022/04/22 04:23:50;;;;;;;26.83;12.80;;;;;;;8.30;70.22;99977.19;5095308;28;20058;-69
2022/04/22 04:26:19;;;;;;;24.23;11.82;;;;;;;8.34;70.22;99967.13;5095124;28;20074;-63
2022/04/22 04:28:47;;;;;;;25.70;12.13;;;;;;;8.38;70.23;99973.69;5090076;28;20059;-64
2022/04/22 04:31:15;;;;;;;25.80;11.57;;;;;;;8.43;70.11;99979.16;5073501;28;20054;-64
2022/04/22 04:33:42;;;;;;;23.63;10.77;;;;;;;8.45;70.07;99976.91;5074786;28;20418;-64
2022/04/22 04:36:16;;;;;;;20.10;11.02;;;;;;;8.38;70.17;99982.00;5094153;28;20485;-66
2022/04/22 04:38:44;;;;;;;18.55;10.45;;;;;;;8.38;70.08;99982.00;5094801;28;20575;-63
2022/04/22 04:41:13;;;;;;;22.85;10.85;;;;;;;8.40;69.96;99977.00;5094685;28;20126;-64
2022/04/22 04:43:41;;;;;;;21.52;11.15;;;;;;;8.40;69.92;99965.06;5093821;28;20044;-64
2022/04/22 04:46:08;;;;;;;21.02;11.55;;;;;;;8.43;70.16;99973.59;5094773;28;20056;-65
2022/04/22 04:48:36;;;;;;;24.73;13.13;;;;;;;8.50;69.44;99975.97;5094417;28;20063;-64
2022/04/22 04:51:03;;;;;;;18.30;10.65;;;;;;;8.48;69.38;99970.72;5091978;28;20058;-64
2022/04/22 04:53:30;;;;;;;21.55;10.65;;;;;;;8.48;69.69;99975.44;5074466;28;20072;-64
2022/04/22 04:55:58;;;;;;;21.30;10.80;;;;;;;8.50;69.92;99979.53;5074674;28;20487;-64
2022/04/22 04:58:25;;;;;;;22.20;11.00;;;;;;;8.50;69.91;99970.44;5074396;28;20423;-64
2022/04/22 05:00:52;;;;;;;26.35;12.10;;;;;;;8.50;69.36;99967.66;5074401;28;20052;-64
2022/04/22 05:03:19;;;;;;;32.42;12.00;;;;;;;8.55;69.54;99970.31;5074252;28;20477;-64
2022/04/22 05:05:46;;;;;;;28.58;13.65;;;;;;;8.56;69.64;99981.06;5074046;28;20072;-64
2022/04/22 05:08:13;;;;;;;27.13;11.55;;;;;;;8.52;69.51;99977.28;5074140;28;20595;-66
2022/04/22 05:10:40;;;;;;;26.75;13.20;;;;;;;8.56;70.15;99975.53;5074136;28;20403;-64
2022/04/22 05:13:08;;;;;;;25.80;12.68;;;;;;;8.67;69.55;99968.66;5074227;28;20048;-64
2022/04/22 05:15:35;;;;;;;27.08;11.98;;;;;;;8.62;68.99;99974.28;5074109;28;20503;-64
2022/04/22 05:18:02;;;;;;;22.95;12.05;;;;;;;8.60;69.25;99973.81;5073624;28;20055;-64
2022/04/22 05:20:32;;;;;;;24.23;11.73;;;;;;;8.63;69.23;99973.19;5074009;28;20068;-64
2022/04/22 05:22:59;;;;;;;22.58;9.15;;;;;;;8.72;68.64;99971.34;5073804;28;20109;-64
2022/04/22 05:25:26;;;;;;;22.85;10.00;;;;;;;8.75;69.03;99964.34;5091285;28;20545;-64
2022/04/22 05:27:54;;;;;;;29.33;10.25;;;;;;;8.77;68.63;99973.97;5093773;28;20048;-64
2022/04/22 05:33:06;;;;;;;19.88;8.63;;;;;;;8.83;68.53;99972.72;5093696;28;20526;-64
2022/04/22 05:35:34;;;;;;;15.00;7.38;;;;;;;8.93;68.06;99975.31;5093961;28;20044;-64
2022/04/22 05:38:05;;;;;;;13.85;7.05;;;;;;;8.95;67.79;99981.34;5093953;28;20087;-65
2022/04/22 05:40:37;;;;;;;17.10;7.03;;;;;;;8.92;67.34;99973.63;5090240;28;20498;-64
2022/04/22 05:43:08;;;;;;;19.45;6.57;;;;;;;9.12;66.99;99977.94;5091011;28;20105;-70
2022/04/22 05:45:36;;;;;;;11.93;6.18;;;;;;;9.25;66.55;99968.75;5093683;28;20148;-71
2022/04/22 05:48:04;;;;;;;11.18;5.85;;;;;;;9.39;65.87;99963.13;5093246;28;20567;-71
2022/04/22 05:50:31;;;;;;;14.80;5.70;;;;;;;9.48;65.34;99967.63;5093515;28;20406;-70
2022/04/22 05:52:59;;;;;;;10.45;5.30;;;;;;;9.66;65.16;99961.06;5074517;28;20049;-70
2022/04/22 05:55:27;;;;;;;12.27;5.95;;;;;;;9.82;64.91;99967.03;5072978;28;20044;-71
2022/04/22 05:57:56;;;;;;;12.63;5.45;;;;;;;9.90;64.26;99974.59;5072420;28;20048;-71
2022/04/22 06:00:25;;;;;;;20.15;5.75;;;;;;;9.95;64.34;99966.16;5073210;28;20127;-71
2022/04/22 06:02:53;;;;;;;13.45;5.90;;;;;;;9.97;64.18;99972.19;5073388;28;20201;-70
2022/04/22 06:05:21;;;;;;;11.27;6.07;;;;;;;10.00;63.56;99966.00;5072881;28;20110;-70
2022/04/22 06:10:36;;;;;;;9.52;4.80;;;;;;;9.91;63.14;99970.69;5073307;28;20045;-71
2022/04/22 06:13:04;;;;;;;11.20;6.45;;;;;;;9.87;63.52;99969.69;5076016;28;20131;-70
2022/04/22 06:15:31;;;;;;;8.38;4.70;;;;;;;10.00;62.67;99969.59;5093337;28;20152;-70
2022/04/22 06:18:01;;;;;;;11.82;5.88;;;;;;;10.10;62.60;99965.75;5093175;28;20044;-70
2022/04/22 06:20:29;;;;;;;13.65;6.82;;;;;;;10.29;61.81;99971.91;5093467;28;20039;-70
2022/04/22 06:22:56;;;;;;;17.60;5.88;;;;;;;10.49;61.17;99965.78;5092713;28;20052;-71
2022/04/22 06:25:23;;;;;;;10.95;5.20;;;;;;;10.62;60.93;99964.81;5093043;28;20113;-70
2022/04/22 06:27:50;;;;;;;10.80;5.95;;;;;;;10.79;60.90;99962.94;5092984;28;20050;-70
2022/04/22 06:30:20;;;;;;;11.05;4.70;;;;;;;10.98;60.55;99957.03;5091317;28;20052;-71
2022/04/22 06:32:50;;;;;;;7.68;4.70;;;;;;;10.99;59.77;99953.13;5093001;28;20151;-71
2022/04/22 06:35:21;;;;;;;7.55;4.50;;;;;;;11.00;59.47;99960.34;5092754;28;20052;-71
2022/04/22 06:37:51;;;;;;;13.20;5.65;;;;;;;11.04;59.16;99955.75;5092492;28;20051;-70
2022/04/22 06:45:51;;;;;;;8.00;4.82;;;;;;;11.36;58.11;99957.25;5072649;28;20415;-71
2022/04/22 06:48:35;;;;;;;7.80;5.03;;;;;;;11.25;58.26;99953.97;5072347;28;20491;-71
2022/04/22 06:51:12;;;;;;;10.60;4.93;;;;;;;11.14;59.17;99955.44;5076370;28;20054;-70
2022/04/22 06:53:40;;;;;;;12.43;5.45;;;;;;;11.06;58.74;99954.28;5092410;28;20059;-71
2022/04/22 06:56:08;;;;;;;13.60;6.15;;;;;;;11.09;58.61;99958.38;5093078;28;20055;-70
2022/04/22 06:58:37;;;;;;;11.00;5.60;;;;;;;11.08;58.41;99953.97;5092689;28;20503;-70
2022/04/22 07:01:07;;;;;;;11.75;6.22;;;;;;;10.90;59.03;99960.66;5092745;28;20101;-71
2022/04/22 07:03:54;;;;;;;8.02;5.28;;;;;;;10.81;58.92;99957.03;5092866;28;20063;-70
2022/04/22 07:06:21;;;;;;;13.13;6.20;;;;;;;10.79;58.75;99956.53;5091203;28;20139;-71
2022/04/22 07:08:49;;;;;;;13.18;6.68;;;;;;;10.77;59.07;99962.41;5092571;28;20048;-70
2022/04/22 07:11:24;;;;;;;13.73;6.28;;;;;;;10.65;59.07;99966.97;5095079;28;20044;-70
2022/04/22 07:13:56;;;;;;;12.32;5.78;;;;;;;10.60;59.48;99969.91;5096231;28;20101;-71
2022/04/22 07:16:24;;;;;;;9.40;5.78;;;;;;;10.64;58.80;99965.34;5096568;28;20051;-71
2022/04/22 07:18:59;;;;;;;9.38;6.05;;;;;;;10.85;58.60;99958.84;5096139;28;20188;-71
2022/04/22 07:21:27;;;;;;;8.48;4.97;;;;;;;10.97;57.91;99961.81;5096554;28;20064;-71
2022/04/22 07:23:55;;;;;;;11.50;5.60;;;;;;;11.04;58.54;99955.75;5096192;28;20475;-72
2022/04/22 07:26:24;;;;;;;16.05;7.63;;;;;;;11.04;58.50;99959.38;5096684;28;20063;-70
2022/04/22 07:28:52;;;;;;;9.68;6.00;;;;;;;10.93;58.10;99957.22;5094230;28;20052;-70
2022/04/22 07:31:19;;;;;;;8.68;5.20;;;;;;;10.80;58.48;99960.94;5076024;28;20095;-71
2022/04/22 07:33:49;;;;;;;12.00;5.35;;;;;;;10.74;58.79;99957.50;5075937;28;20088;-71
2022/04/22 07:36:17;;;;;;;11.27;5.07;;;;;;;10.67;58.05;99956.34;5076049;28;20450;-72
2022/04/22 07:38:44;;;;;;;16.25;5.53;;;;;;;10.69;58.66;99963.22;5075799;28;20049;-71
2022/04/22 07:41:17;;;;;;;14.52;5.40;;;;;;;10.73;58.52;99953.09;5093283;28;20059;-72
2022/04/22 07:46:48;;;;;;;11.38;6.18;;;;;;;10.57;58.78;99963.00;5096062;28;20106;-71
2022/04/22 07:49:17;;;;;;;10.68;5.60;;;;;;;10.42;59.02;99959.88;5095891;28;20064;-71
2022/04/22 07:51:44;;;;;;;12.88;5.55;;;;;;;10.47;59.40;99945.78;5089081;28;20033;-72
2022/04/22 07:54:14;;;;;;;10.68;5.43;;;;;;;10.52;58.76;99954.00;5076071;28;20135;-71
2022/04/22 07:56:42;;;;;;;22.77;10.13;;;;;;;10.50;58.50;99945.16;5075444;28;20048;-70
2022/04/22 07:59:13;;;;;;;22.50;7.50;;;;;;;10.61;58.29;99952.06;5075344;28;20057;-71
2022/04/22 08:01:40;;;;;;;14.75;5.85;;;;;;;10.62;58.49;99937.84;5075528;28;20135;-71
2022/04/22 08:04:09;;;;;;;16.10;5.10;;;;;;;10.80;58.29;99944.25;5075238;28;20554;-72
2022/04/22 08:06:37;;;;;;;16.80;5.00;;;;;;;10.89;57.68;99947.88;5075386;28;20048;-71
2022/04/22 08:09:04;;;;;;;9.75;5.25;;;;;;;11.04;58.12;99942.66;5075370;28;20048;-71
2022/04/22 08:11:31;;;;;;;9.90;4.75;;;;;;;11.10;57.70;99934.94;5075123;28;20040;-70
2022/04/22 08:13:59;;;;;;;9.15;4.47;;;;;;;11.04;57.69;99939.88;5074861;28;20511;-71
2022/04/22 08:16:26;;;;;;;11.63;5.05;;;;;;;11.05;57.97;99941.50;5075171;28;20052;-71
2022/04/22 08:18:56;;;;;;;;;;;;;;;11.04;58.06;99933.47;5075360;28;20509;-70
2022/04/22 08:21:32;;;;;;;6.22;4.45;;;;;;;11.11;57.33;99937.41;5074683;28;19985;-72
2022/04/22 08:24:03;;;;;;;6.43;3.65;;;;;;;11.17;56.96;99926.94;5074857;28;20056;-71
2022/04/22 08:26:32;;;;;;;10.98;4.72;;;;;;;11.17;56.79;99929.75;5074968;28;20431;-70
2022/04/22 08:28:59;;;;;;;36.25;13.23;;;;;;;11.19;57.14;99927.41;5077743;28;20055;-71
2022/04/22 08:31:26;;;;;;;13.02;5.57;;;;;;;11.23;57.42;99928.44;5095009;28;20044;-70
2022/04/22 08:33:56;;;;;;;14.15;4.88;;;;;;;11.20;57.68;99931.88;5094966;28;20452;-70
2022/04/22 08:36:28;;;;;;;8.55;4.18;;;;;;;11.08;57.15;99926.94;5074897;28;20086;-70
2022/04/22 08:38:56;;;;;;;11.90;5.80;;;;;;;10.96;57.67;99926.75;5074564;28;20078;-71
2022/04/22 08:41:23;;;;;;;7.28;4.30;;;;;;;10.91;58.17;99926.09;5086685;28;20047;-71
2022/04/22 08:43:58;;;;;;;16.85;4.80;;;;;;;10.85;57.69;99925.44;5094769;28;20441;-72
2022/04/22 08:51:58;;;;;;;8.90;4.68;;;;;;;11.15;57.71;99915.31;5084509;28;20044;-70
2022/04/22 08:54:28;;;;;;;10.15;4.43;;;;;;;11.36;56.79;99910.72;5074173;28;20067;-70
2022/04/22 08:56:56;;;;;;;12.00;4.95;;;;;;;11.54;56.71;99915.13;5074444;28;20056;-72
2022/04/22 08:59:25;;;;;;;8.43;3.97;;;;;;;11.67;56.51;99914.16;5074273;28;20522;-71
2022/04/22 09:01:55;;;;;;;;;;;;;;;11.74;56.67;99914.47;5074832;28;20044;-70
2022/04/22 09:04:22;;;;;;;8.50;4.32;;;;;;;11.76;56.37;99917.75;5074122;28;19947;-71
2022/04/22 09:06:50;;;;;;;7.03;4.25;;;;;;;11.74;56.20;99908.06;5073947;28;20056;-71
2022/04/22 09:09:18;;;;;;;9.20;4.50;;;;;;;11.59;57.04;99914.13;5073884;28;20087;-71
2022/04/22 09:11:45;;;;;;;9.13;3.70;;;;;;;11.61;56.76;99914.63;5072602;28;20511;-70
2022/04/22 09:14:19;;;;;;;8.48;5.32;;;;;;;11.54;56.72;99903.97;5073960;28;20495;-71
2022/04/22 09:16:48;;;;;;;7.85;3.63;;;;;;;11.47;56.86;99908.41;5074207;28;20126;-71
2022/04/22 09:19:18;;;;;;;6.53;4.00;;;;;;;11.59;56.51;99911.34;5076468;28;20185;-71
2022/04/22 09:22:03;;;;;;;13.55;4.00;;;;;;;11.68;56.23;99910.22;5093986;28;20044;-71
2022/04/22 09:24:30;;;;;;;8.93;4.15;;;;;;;11.81;56.08;99898.03;5075710;28;20078;-70
2022/04/22 09:27:05;;;;;;;6.20;3.90;;;;;;;12.00;55.37;99904.06;5094305;28;20048;-71
2022/04/22 09:29:54;;;;;;;10.30;4.32;;;;;;;12.04;55.09;99896.66;5093570;28;20070;-70
2022/04/22 09:32:23;;;;;;;7.90;4.10;;;;;;;11.95;55.15;99890.31;5093567;28;20093;-71
2022/04/22 09:34:51;;;;;;;14.38;4.50;;;;;;;12.03;55.26;99892.25;5093271;28;20055;-71
2022/04/22 09:43:21;;;;;;;6.35;4.20;;;;;;;12.04;54.83;99893.88;5051043;28;20040;-72
2022/04/22 09:45:51;;;;;;;7.32;4.47;;;;;;;12.20;54.85;99894.16;5051244;28;20091;-72
2022/04/22 09:48:19;;;;;;;;;;;;;;;12.25;54.45;99885.56;5063321;28;20129;-74
2022/04/22 09:50:52;;;;;;;8.18;4.25;;;;;;;12.25;54.14;99880.81;5073684;28;19942;-71
2022/04/22 09:53:34;;;;;;;12.27;4.15;;;;;;;12.76;53.03;99874.94;5093323;28;20059;-71
2022/04/22 09:56:06;;;;;;;8.52;4.88;;;;;;;13.51;51.70;99878.63;5093649;28;20136;-70
2022/04/22 09:58:34;;;;;;;11.18;4.60;;;;;;;13.87;50.84;99878.72;5095934;28;20097;-69
2022/04/22 10:01:06;;;;;;;11.00;4.88;;;;;;;14.04;50.56;99870.94;5096644;28;20070;-71
2022/04/22 10:03:35;;;;;;;8.50;4.45;;;;;;;13.99;50.82;99873.16;5093390;28;20052;-76
2022/04/22 10:06:06;;;;;;;8.95;4.30;;;;;;;13.82;50.92;99873.34;5093667;28;20101;-72
2022/04/22 10:08:37;;;;;;;12.70;5.32;;;;;;;13.59;51.36;99874.94;5093619;28;20086;-71
2022/04/22 10:11:06;;;;;;;8.10;4.32;;;;;;;13.30;52.00;99867.50;5093318;28;20054;-72
2022/04/22 10:13:46;;;;;;;7.60;4.70;;;;;;;13.16;51.85;99868.91;5093158;28;20394;-71
2022/04/22 10:16:14;;;;;;;;;;;;;;;12.89;52.22;99865.50;5093831;28;20076;-71
2022/04/22 10:18:42;;;;;;;8.10;3.95;;;;;;;12.84;52.63;99867.66;5092933;28;19923;-72
2022/04/22 10:21:09;;;;;;;8.95;4.40;;;;;;;12.81;52.36;99866.38;5092928;28;20533;-72
2022/04/22 10:23:44;;;;;;;9.80;3.80;;;;;;;12.88;52.04;99861.06;5092751;28;20053;-72
2022/04/22 10:26:11;;;;;;;8.97;4.03;;;;;;;13.08;51.26;99856.66;5093110;28;20056;-71
2022/04/22 10:28:42;;;;;;;14.48;5.60;;;;;;;13.34;50.93;99862.84;5092185;28;20052;-73
2022/04/22 10:31:09;;;;;;;8.55;4.68;;;;;;;13.82;49.72;99853.75;5073215;28;20117;-73
2022/04/22 10:33:41;;;;;;;7.28;3.92;;;;;;;14.24;48.83;99852.47;5072558;28;20529;-73
2022/04/22 10:36:13;;;;;;;6.57;4.25;;;;;;;14.50;47.92;99850.13;5072852;28;20058;-75
2022/04/22 10:38:43;;;;;;;6.40;3.72;;;;;;;14.34;48.17;99852.84;5072717;28;20135;-70
2022/04/22 10:41:21;;;;;;;6.70;3.90;;;;;;;14.15;48.85;99858.13;5072548;28;20505;-70
2022/04/22 10:47:13;;;;;;;7.22;3.42;;;;;;;13.84;49.12;99857.03;5092266;28;20051;-70
2022/04/22 10:49:43;;;;;;;7.18;3.72;;;;;;;13.66;49.48;99848.03;5087426;28;20140;-71
2022/04/22 10:52:17;;;;;;;8.20;4.03;;;;;;;13.56;49.51;99856.84;5075081;28;20125;-70
2022/04/22 10:54:58;;;;;;;6.78;3.95;;;;;;;13.43;49.88;99844.00;5074226;28;20448;-71
2022/04/22 10:57:31;;;;;;;5.32;3.75;;;;;;;13.32;49.79;99844.78;5072430;28;20143;-70
2022/04/22 11:00:07;;;;;;;12.80;3.60;;;;;;;13.18;50.36;99847.06;5072500;28;20066;-70
2022/04/22 11:02:36;;;;;;;8.90;3.58;;;;;;;13.09;50.19;99843.53;5072424;28;20049;-70
2022/04/22 11:05:19;;;;;;;8.52;4.80;;;;;;;12.90;50.27;99852.34;5072697;28;20095;-71
2022/04/22 11:07:58;;;;;;;7.95;4.03;;;;;;;12.86;50.49;99846.63;5072343;28;20049;-70
2022/04/22 11:10:27;;;;;;;8.05;3.70;;;;;;;12.77;50.58;99837.47;5072297;28;20072;-70
2022/04/22 11:12:58;;;;;;;5.93;3.53;;;;;;;12.65;50.88;99843.00;5072146;28;20049;-72
2022/04/22 11:15:43;;;;;;;8.52;3.53;;;;;;;12.67;50.87;99837.91;5072298;28;20067;-70
2022/04/22 11:18:14;;;;;;;6.47;3.90;;;;;;;12.60;51.16;99837.63;5072263;28;20060;-70
2022/04/22 11:20:49;;;;;;;6.75;3.80;;;;;;;12.56;51.44;99835.84;5072322;28;20055;-70
2022/04/22 11:23:17;;;;;;;7.25;4.50;;;;;;;12.53;51.23;99834.53;5071976;28;20414;-69
2022/04/22 11:25:46;;;;;;;11.18;3.88;;;;;;;12.45;51.36;99829.84;5073009;28;20040;-70
2022/04/22 11:28:14;;;;;;;9.35;4.72;;;;;;;12.35;51.64;99827.44;5072114;28;20056;-70
2022/04/22 11:30:42;;;;;;;9.77;4.47;;;;;;;12.38;51.79;99832.34;5072162;28;20056;-70
2022/04/22 11:33:23;;;;;;;15.05;4.82;;;;;;;12.37;51.91;99841.88;5071982;28;20048;-70
2022/04/22 11:35:57;;;;;;;12.50;4.60;;;;;;;12.33;51.83;99835.34;5071890;28;20143;-70
2022/04/22 11:38:24;;;;;;;11.55;5.00;;;;;;;12.24;52.02;99823.41;5072124;28;20148;-71
2022/04/22 11:40:51;;;;;;;12.82;4.28;;;;;;;12.25;51.91;99818.63;5071814;28;20140;-71
2022/04/22 11:43:20;;;;;;;7.00;4.78;;;;;;;12.22;52.26;99822.09;5072142;28;20051;-71
2022/04/22 11:45:49;;;;;;;11.18;5.25;;;;;;;12.18;52.20;99815.56;5072305;28;20135;-70
2022/04/22 11:48:19;;;;;;;9.07;4.75;;;;;;;12.15;52.30;99814.28;5071805;28;20525;-70
2022/04/22 11:50:46;;;;;;;;;;;;;;;12.05;52.38;99820.22;5072661;28;20056;-70
2022/04/22 11:53:20;;;;;;;103.63;36.92;;;;;;;12.08;52.65;99818.75;5092194;28;19924;-70
2022/04/22 11:55:48;;;;;;;20.27;7.97;;;;;;;12.17;52.67;99808.38;5092454;28;20138;-70
2022/04/22 11:58:17;;;;;;;11.65;5.43;;;;;;;12.20;52.64;99802.13;5092235;28;20048;-71
2022/04/22 12:06:20;;;;;;;8.15;4.65;;;;;;;12.29;53.03;99806.47;5078019;28;20059;-70
2022/04/22 12:08:54;;;;;;;9.23;4.78;;;;;;;12.32;52.68;99803.00;5081585;28;20123;-65
2022/04/22 12:11:23;;;;;;;13.77;4.72;;;;;;;12.39;52.62;99802.47;5078193;28;20117;-68
2022/04/22 12:13:51;;;;;;;11.32;4.65;;;;;;;12.38;52.50;99798.84;5073888;28;20053;-69
2022/04/22 12:16:19;;;;;;;8.90;4.68;;;;;;;12.36;52.63;99798.41;5083906;28;20135;-64
2022/04/22 12:18:48;;;;;;;9.07;4.40;;;;;;;12.39;52.88;99786.56;5081376;28;20097;-65
2022/04/22 12:21:17;;;;;;;19.77;7.82;;;;;;;12.31;52.46;99793.00;5077683;28;20051;-64
2022/04/22 12:23:50;;;;;;;8.13;4.03;;;;;;;12.24;53.15;99792.72;5086373;28;20067;-63
2022/04/22 12:26:36;;;;;;;9.45;4.32;;;;;;;12.21;53.23;99790.63;5082786;28;20414;-65
2022/04/22 12:29:13;;;;;;;8.93;4.82;;;;;;;12.20;53.40;99788.97;5072848;28;20483;-65
2022/04/22 12:31:54;;;;;;;16.10;5.30;;;;;;;12.11;53.32;99791.00;5081943;28;20052;-65
2022/04/22 12:34:30;;;;;;;15.05;4.90;;;;;;;12.05;53.62;99794.31;5087287;28;20044;-70